Time;durP1;ratioP1;P1;durP2;ratioP2;P2;SDS_P1;SDS_P2;PMS_P1;PMS_P2;Temp;Humidity;BMP_temperature;BMP_pressure;BME280_temperature;BME280_humidity;BME280_pressure;Samples;Min_cycle;Max_cycle;Signal;HPM_P1;HPM_P2
2022/01/27 00:09:19;;;;;;;25.80;10.48;;;;;;;4.36;62.21;101442.72;18368702;32;20023;-73
2022/01/27 00:19:22;;;;;;;20.10;10.40;;;;;;;4.68;61.02;101435.38;18366747;32;20089;-75
2022/01/27 00:29:27;;;;;;;23.85;11.57;;;;;;;4.91;60.16;101427.59;18368656;32;20093;-75
2022/01/27 00:39:30;;;;;;;25.30;11.60;;;;;;;4.30;61.75;101439.09;18366853;32;20097;-75
2022/01/27 00:49:36;;;;;;;24.73;10.60;;;;;;;3.98;62.08;101425.75;18366753;32;20107;-73
2022/01/27 00:59:51;;;;;;;21.65;9.82;;;;;;;4.11;61.76;101415.91;18366506;32;20159;-73
2022/01/27 01:20:34;;;;;;;23.40;9.82;;;;;;;4.27;61.19;101407.97;18165920;32;20118;-73
2022/01/27 01:30:50;;;;;;;22.37;11.12;;;;;;;4.10;61.25;101411.56;18172216;32;20121;-73
2022/01/27 01:40:54;;;;;;;26.70;11.00;;;;;;;4.15;61.56;101408.34;18172856;32;20134;-75
2022/01/27 01:50:59;;;;;;;24.92;10.98;;;;;;;4.35;61.24;101404.78;18245289;32;20097;-75
2022/01/27 02:01:02;;;;;;;22.70;10.48;;;;;;;4.32;60.94;101394.31;18372942;32;20090;-75
2022/01/27 02:21:28;;;;;;;19.45;8.75;;;;;;;4.22;61.00;101372.37;18371458;32;20093;-75
2022/01/27 02:31:32;;;;;;;19.95;8.40;;;;;;;3.91;60.54;101376.31;18371119;32;20163;-75
2022/01/27 02:41:43;;;;;;;19.98;8.00;;;;;;;3.93;59.62;101349.75;18369945;32;20239;-73
2022/01/27 02:51:46;;;;;;;22.37;9.35;;;;;;;3.46;60.29;101355.59;18370782;32;20107;-73
2022/01/27 03:01:52;;;;;;;18.02;7.80;;;;;;;3.03;61.39;101339.13;18371498;32;20480;-73
2022/01/27 03:11:58;;;;;;;19.02;7.80;;;;;;;3.19;61.12;101352.72;18370399;32;20638;-74
2022/01/27 03:22:04;;;;;;;23.27;10.65;;;;;;;3.57;60.10;101349.97;18369867;32;20388;-73
2022/01/27 03:32:08;;;;;;;25.15;10.32;;;;;;;3.67;59.96;101359.00;18369407;32;20114;-73
2022/01/27 03:42:13;;;;;;;23.12;10.27;;;;;;;3.75;59.63;101344.72;18368585;32;20077;-73
2022/01/27 03:52:18;;;;;;;23.62;9.73;;;;;;;3.42;60.24;101335.63;18369043;32;20089;-73
2022/01/27 04:02:22;;;;;;;25.02;11.77;;;;;;;3.45;60.17;101329.69;18368757;32;20406;-73
2022/01/27 04:12:26;;;;;;;25.85;12.05;;;;;;;3.55;59.93;101346.47;18368295;32;20090;-73
2022/01/27 04:22:31;;;;;;;28.15;11.23;;;;;;;3.70;60.05;101338.47;18367947;32;20182;-73
2022/01/27 04:32:42;;;;;;;30.83;13.57;;;;;;;3.46;60.75;101344.34;18367833;32;20089;-73
2022/01/27 04:42:55;;;;;;;26.45;12.23;;;;;;;3.67;59.90;101349.53;18367293;32;20513;-73
2022/01/27 04:53:00;;;;;;;24.25;10.77;;;;;;;3.30;61.37;101346.31;18367171;32;20098;-73
2022/01/27 05:03:13;;;;;;;25.65;12.35;;;;;;;3.79;59.20;101331.09;18365594;32;20138;-73
2022/01/27 05:13:19;;;;;;;22.90;11.10;;;;;;;4.15;57.87;101324.75;18365767;32;20092;-73
2022/01/27 05:23:23;;;;;;;23.65;10.98;;;;;;;4.19;57.58;101324.06;18364805;32;20098;-73
2022/01/27 05:33:27;;;;;;;29.95;13.27;;;;;;;4.13;57.65;101321.22;18364383;32;20145;-73
2022/01/27 05:43:33;;;;;;;24.17;10.93;;;;;;;4.17;57.41;101317.91;18363533;32;20098;-73
2022/01/27 05:53:37;;;;;;;25.80;11.60;;;;;;;4.13;57.85;101319.53;18363188;32;20176;-74
2022/01/27 06:03:42;;;;;;;25.67;11.57;;;;;;;4.45;57.05;101311.22;18362571;32;20107;-73
2022/01/27 06:13:45;;;;;;;26.17;11.75;;;;;;;4.16;57.92;101311.00;18366512;32;20373;-73
2022/01/27 06:23:49;;;;;;;24.50;12.18;;;;;;;4.63;56.88;101307.56;18371383;32;20489;-73
2022/01/27 06:33:53;;;;;;;32.38;15.40;;;;;;;4.49;57.17;101320.88;18372291;32;20093;-73
2022/01/27 06:44:00;;;;;;;32.88;13.02;;;;;;;4.47;57.23;101332.88;18370509;32;20119;-74
2022/01/27 06:54:03;;;;;;;28.87;12.70;;;;;;;4.00;58.85;101336.25;18370162;32;20098;-74
2022/01/27 07:04:08;;;;;;;27.42;13.77;;;;;;;4.01;59.02;101330.25;18370127;32;20437;-73
2022/01/27 07:14:11;;;;;;;31.50;15.90;;;;;;;4.33;58.24;101328.87;18370109;32;20370;-73
2022/01/27 07:24:16;;;;;;;25.30;11.98;;;;;;;4.56;57.30;101325.47;18369364;32;20146;-74
2022/01/27 07:34:19;;;;;;;27.73;12.85;;;;;;;4.82;56.66;101316.88;18369687;32;20097;-73
2022/01/27 07:44:24;;;;;;;27.45;13.18;;;;;;;4.86;56.28;101314.47;18369018;32;20433;-73
2022/01/27 07:54:28;;;;;;;29.37;13.18;;;;;;;4.86;56.75;101305.81;18369161;32;20437;-74
2022/01/27 08:04:32;;;;;;;25.35;12.98;;;;;;;4.91;56.18;101309.47;18368693;32;20148;-73
2022/01/27 08:14:35;;;;;;;24.12;11.52;;;;;;;4.72;56.48;101292.38;18367124;32;20113;-74
2022/01/27 08:24:41;;;;;;;25.10;11.18;;;;;;;5.04;56.30;101277.13;18367592;32;20101;-74
2022/01/27 08:34:44;;;;;;;26.33;11.50;;;;;;;4.99;56.14;101292.50;18366380;32;20080;-73
2022/01/27 08:44:49;;;;;;;25.95;11.77;;;;;;;5.26;55.62;101277.87;18366902;32;20101;-73
2022/01/27 08:54:52;;;;;;;23.02;10.00;;;;;;;5.76;53.85;101261.31;18366506;32;20097;-73
2022/01/27 09:05:03;;;;;;;23.98;11.63;;;;;;;5.63;54.36;101263.53;18366058;32;20101;-74
2022/01/27 09:15:07;;;;;;;25.27;11.48;;;;;;;6.16;52.90;101279.84;18365501;32;20159;-74
2022/01/27 09:25:17;;;;;;;24.08;10.75;;;;;;;6.88;50.93;101269.78;18364776;32;20464;-74
2022/01/27 09:35:20;;;;;;;21.45;9.73;;;;;;;6.90;50.61;101258.59;18364317;32;20109;-74
2022/01/27 09:45:27;;;;;;;21.05;9.95;;;;;;;7.25;48.75;101265.56;18366340;32;20115;-74
2022/01/27 09:55:30;;;;;;;18.87;9.05;;;;;;;7.42;48.26;101268.56;18372275;32;20132;-74
2022/01/27 10:05:42;;;;;;;20.88;9.38;;;;;;;7.29;48.85;101275.16;18371788;32;20115;-74
2022/01/27 10:15:47;;;;;;;20.02;10.02;;;;;;;7.41;47.79;101266.81;18372691;32;20097;-74
2022/01/27 10:25:55;;;;;;;27.58;12.50;;;;;;;7.17;48.32;101259.28;18371347;32;20094;-74
2022/01/27 10:36:14;;;;;;;19.85;9.25;;;;;;;7.90;47.53;101217.72;18371354;32;20093;-75
2022/01/27 10:46:25;;;;;;;19.52;9.25;;;;;;;8.12;45.62;101218.16;18370985;32;20381;-75
2022/01/27 10:56:31;;;;;;;20.13;9.20;;;;;;;8.52;45.18;101191.22;18370248;32;20464;-77
2022/01/27 11:06:36;;;;;;;18.33;9.07;;;;;;;8.38;45.01;101184.00;18370329;32;20235;-76
2022/01/27 11:16:42;;;;;;;18.73;8.32;;;;;;;8.51;45.10;101169.53;18370090;32;20097;-77
2022/01/27 11:26:48;;;;;;;20.10;8.80;;;;;;;8.47;45.09;101147.75;18369707;32;20180;-75
2022/01/27 11:37:04;;;;;;;18.55;8.80;;;;;;;7.91;45.65;101141.47;18401369;32;20149;-77
2022/01/27 11:47:22;;;;;;;22.00;10.32;;;;;;;8.01;45.35;101128.66;18433167;32;20179;-75
2022/01/27 11:57:41;;;;;;;21.77;10.52;;;;;;;7.80;45.97;101126.47;18432735;32;20145;-75
2022/01/27 12:08:21;;;;;;;22.25;11.00;;;;;;;8.56;44.68;101123.62;18430899;32;20425;-75
2022/01/27 12:18:58;;;;;;;23.58;10.35;;;;;;;8.23;45.19;101121.25;18433140;32;20092;-75
2022/01/27 12:29:02;;;;;;;26.95;11.20;;;;;;;8.68;44.89;101091.75;18431908;32;20111;-75
2022/01/27 12:39:09;;;;;;;22.75;10.65;;;;;;;8.50;44.56;101081.00;18415122;32;84388;-74
2022/01/27 12:49:12;;;;;;;26.75;10.63;;;;;;;8.28;45.04;101070.22;18432049;32;20160;-75
2022/01/27 12:59:17;;;;;;;23.15;10.52;;;;;;;8.37;45.33;101040.87;18431403;32;20089;-75
2022/01/27 13:09:20;;;;;;;22.05;11.32;;;;;;;8.32;45.50;101020.88;18429396;32;20097;-75
2022/01/27 13:19:42;;;;;;;22.25;11.12;;;;;;;8.40;44.94;101001.94;18428491;32;20084;-75
2022/01/27 13:29:47;;;;;;;29.08;12.07;;;;;;;8.36;45.27;100990.59;18438051;32;20092;-75
2022/01/27 13:50:14;;;;;;;30.05;13.62;;;;;;;8.15;45.89;100957.28;18436377;32;20093;-74
2022/01/27 14:00:30;;;;;;;28.30;13.30;;;;;;;8.28;45.63;100941.00;18436368;32;20101;-75
2022/01/27 14:10:40;;;;;;;33.13;13.10;;;;;;;8.26;46.08;100921.91;18435510;32;20437;-74
2022/01/27 14:20:56;;;;;;;25.55;13.20;;;;;;;7.95;46.36;100925.72;18435592;32;20116;-74
2022/01/27 14:31:01;;;;;;;27.75;12.93;;;;;;;8.17;45.86;100925.25;18432645;32;20105;-74
2022/01/27 14:41:05;;;;;;;30.15;13.40;;;;;;;7.74;46.58;100901.13;18434474;32;20437;-74
2022/01/27 14:51:10;;;;;;;32.08;13.55;;;;;;;7.97;46.27;100896.31;18434994;32;20114;-74
2022/01/27 15:01:14;;;;;;;29.70;12.77;;;;;;;7.43;47.87;100877.19;18434503;32;20157;-74
2022/01/27 15:11:18;;;;;;;30.17;13.77;;;;;;;7.63;47.17;100868.03;18433807;32;20116;-77
2022/01/27 15:21:23;;;;;;;33.90;13.80;;;;;;;7.52;47.41;100860.87;18434887;32;20093;-77
2022/01/27 15:31:26;;;;;;;33.50;13.55;;;;;;;7.67;47.22;100861.16;18433461;32;20101;-77
2022/01/27 15:41:31;;;;;;;36.60;15.73;;;;;;;7.34;48.13;100855.41;18432479;32;20111;-74
2022/01/27 15:51:36;;;;;;;33.63;13.52;;;;;;;7.23;48.52;100851.72;18433722;32;20215;-74
2022/01/27 16:01:41;;;;;;;30.37;14.18;;;;;;;6.91;49.44;100846.78;18432686;32;20403;-74
2022/01/27 16:11:44;;;;;;;31.70;14.32;;;;;;;6.89;49.30;100826.00;18431522;32;20456;-74
2022/01/27 16:21:49;;;;;;;34.35;15.65;;;;;;;6.55;50.63;100816.66;18431533;32;20138;-75
2022/01/27 16:31:52;;;;;;;33.72;15.52;;;;;;;6.63;51.04;100817.66;18431835;32;20129;-74
2022/01/27 16:41:57;;;;;;;68.90;31.33;;;;;;;6.50;51.83;100811.38;18431280;32;20434;-74
2022/01/27 16:52:00;;;;;;;49.65;21.05;;;;;;;6.64;52.14;100807.31;18431149;32;20105;-74
2022/01/27 17:02:05;;;;;;;44.92;23.05;;;;;;;6.63;52.46;100786.53;18429738;32;20243;-74
2022/01/27 17:12:09;;;;;;;36.50;18.05;;;;;;;6.32;52.90;100770.34;18431053;32;20423;-74
2022/01/27 17:22:16;;;;;;;164.52;53.05;;;;;;;6.22;52.59;100770.16;18429668;32;20429;-74
2022/01/27 17:32:19;;;;;;;109.35;40.35;;;;;;;5.85;53.97;100774.47;18428656;32;20108;-74
2022/01/27 17:42:24;;;;;;;62.62;29.25;;;;;;;6.12;52.99;100773.38;18427917;32;20107;-73
2022/01/27 17:52:28;;;;;;;44.95;21.10;;;;;;;5.58;53.39;100782.47;18427434;32;20112;-74
2022/01/27 18:02:33;;;;;;;41.13;19.73;;;;;;;5.75;54.07;100775.09;18426963;32;20122;-74
2022/01/27 18:12:36;;;;;;;34.53;16.00;;;;;;;5.46;54.77;100765.81;18434309;32;20104;-74
2022/01/27 18:22:41;;;;;;;36.47;15.98;;;;;;;5.52;54.66;100770.25;18435589;32;20097;-73
2022/01/27 18:32:44;;;;;;;31.62;14.85;;;;;;;5.55;54.70;100749.59;18435272;32;20172;-73
2022/01/27 18:42:50;;;;;;;32.03;16.40;;;;;;;5.51;55.07;100734.84;18434839;32;20112;-73
2022/01/27 18:52:53;;;;;;;35.53;16.23;;;;;;;5.58;55.18;100721.16;18435612;32;20095;-73
2022/01/27 19:02:58;;;;;;;32.75;15.63;;;;;;;5.75;54.85;100731.06;18433995;32;20104;-74
2022/01/27 19:13:02;;;;;;;34.75;17.27;;;;;;;5.79;54.64;100722.53;18434013;32;20093;-74
2022/01/27 19:23:07;;;;;;;33.08;16.92;;;;;;;5.96;54.09;100722.91;18433364;32;20498;-73
2022/01/27 19:33:11;;;;;;;32.60;16.45;;;;;;;6.16;53.36;100718.16;18433452;32;20097;-74
2022/01/27 19:43:16;;;;;;;32.33;16.17;;;;;;;6.48;52.25;100720.56;18433267;32;20154;-74
2022/01/27 19:53:19;;;;;;;30.23;15.63;;;;;;;6.15;52.80;100711.22;18434047;32;20093;-74
2022/01/27 20:03:25;;;;;;;36.47;17.90;;;;;;;6.07;52.80;100697.22;18432935;32;20133;-74
2022/01/27 20:13:28;;;;;;;33.55;18.48;;;;;;;6.11;53.03;100710.28;18432656;32;20108;-74
2022/01/27 20:23:34;;;;;;;39.05;19.33;;;;;;;5.83;53.76;100703.59;18432506;32;20152;-74
2022/01/27 20:33:37;;;;;;;29.83;13.77;;;;;;;5.07;55.64;100702.72;18430351;32;20377;-74
2022/01/27 20:43:43;;;;;;;31.05;13.57;;;;;;;6.02;51.89;100691.09;18431490;32;20116;-74
2022/01/27 20:53:49;;;;;;;22.92;10.93;;;;;;;6.66;49.05;100675.06;18427526;32;20089;-74
2022/01/27 21:03:54;;;;;;;23.55;10.90;;;;;;;6.96;47.58;100660.87;18402476;32;20492;-74
2022/01/27 21:13:57;;;;;;;22.05;10.48;;;;;;;6.88;47.62;100652.97;18363765;32;20101;-74
2022/01/27 21:24:02;;;;;;;24.50;11.57;;;;;;;6.86;49.10;100633.00;18360760;32;20438;-74
2022/01/27 21:34:05;;;;;;;23.42;10.48;;;;;;;7.24;49.32;100650.94;18358566;32;20154;-75
2022/01/27 21:44:10;;;;;;;23.75;11.43;;;;;;;6.87;51.34;100669.34;18366707;32;20093;-75
2022/01/27 21:54:13;;;;;;;24.37;12.52;;;;;;;6.83;52.12;100687.44;18370006;32;20086;-75
2022/01/27 22:04:38;;;;;;;27.33;12.43;;;;;;;7.08;51.64;100687.03;18365827;32;20113;-74
2022/01/27 22:14:42;;;;;;;25.50;11.07;;;;;;;6.96;52.24;100696.31;18370359;32;20101;-72
2022/01/27 22:24:46;;;;;;;24.08;11.38;;;;;;;7.10;52.26;100718.22;18371894;32;20101;-74
2022/01/27 22:34:50;;;;;;;25.12;11.70;;;;;;;7.11;52.37;100721.66;18371180;32;20089;-75
2022/01/27 22:44:56;;;;;;;21.40;10.82;;;;;;;6.93;53.37;100743.88;18371070;32;20093;-74
2022/01/27 22:54:59;;;;;;;20.15;9.18;;;;;;;6.90;54.37;100751.59;18385514;32;20107;-76
2022/01/27 23:05:05;;;;;;;20.15;8.85;;;;;;;6.85;55.18;100735.94;18434550;32;20134;-75
2022/01/27 23:15:19;;;;;;;21.33;9.48;;;;;;;6.63;56.97;100737.25;18434391;32;20108;-75
2022/01/27 23:25:24;;;;;;;19.00;8.52;;;;;;;6.76;57.21;100723.69;18433870;32;20426;-75
2022/01/27 23:35:30;;;;;;;16.77;7.75;;;;;;;6.47;59.32;100713.62;18433624;32;20441;-75
2022/01/27 23:45:42;;;;;;;18.73;7.82;;;;;;;6.61;59.39;100700.03;18433573;32;20101;-74
2022/01/27 23:55:53;;;;;;;19.10;8.43;;;;;;;6.27;60.44;100678.63;18433318;32;20089;-75
